createdAt,value
2022-11-02T00:00:15.161Z,8.90
2022-11-02T00:02:18.933Z,7.70
2022-11-02T00:04:22.644Z,8.83
2022-11-02T00:06:26.611Z,9.60
2022-11-02T00:08:30.162Z,6.00
2022-11-02T00:10:34.757Z,12.23
2022-11-02T00:12:38.459Z,7.37
2022-11-02T00:14:43.511Z,9.57
2022-11-02T00:16:46.924Z,13.53
2022-11-02T00:18:52.061Z,5.97
2022-11-02T00:20:55.813Z,8.40
2022-11-02T00:23:00.145Z,7.70
2022-11-02T00:25:05.379Z,9.67
2022-11-02T00:27:08.896Z,17.70
2022-11-02T00:29:12.456Z,13.77
2022-11-02T00:31:17.381Z,10.13
2022-11-02T00:33:21.015Z,11.57
2022-11-02T00:35:24.614Z,12.23
2022-11-02T00:37:28.119Z,18.07
2022-11-02T00:39:31.665Z,11.53
2022-11-02T00:41:38.474Z,9.07
2022-11-02T00:43:42.051Z,8.60
2022-11-02T00:45:45.758Z,10.97
2022-11-02T00:47:50.781Z,8.90
2022-11-02T00:49:54.481Z,10.40
2022-11-02T00:51:57.954Z,9.03
2022-11-02T00:54:01.285Z,11.17
2022-11-02T00:56:04.690Z,11.30
2022-11-02T00:58:08.341Z,9.77
2022-11-02T01:00:12.845Z,13.57
2022-11-02T01:02:16.752Z,17.20
2022-11-02T01:04:21.684Z,11.10
2022-11-02T01:06:25.325Z,9.50
2022-11-02T01:08:28.722Z,11.67
2022-11-02T01:10:32.199Z,8.77
2022-11-02T01:12:35.623Z,20.53
2022-11-02T01:14:39.153Z,10.70
2022-11-02T01:18:48.004Z,12.23
2022-11-02T01:20:59.119Z,10.40
2022-11-02T01:23:02.500Z,12.37
2022-11-02T01:25:06.292Z,7.77
2022-11-02T01:27:09.596Z,7.70
2022-11-02T01:29:13.349Z,8.90
2022-11-02T01:31:16.804Z,14.43
2022-11-02T01:33:20.287Z,10.70
2022-11-02T01:35:23.707Z,11.67
2022-11-02T01:37:28.559Z,8.03
2022-11-02T01:39:31.995Z,7.83
2022-11-02T01:41:35.690Z,10.30
2022-11-02T01:43:39.153Z,9.30
2022-11-02T01:45:42.587Z,10.47
2022-11-02T01:47:47.929Z,11.97
2022-11-02T01:49:53.251Z,7.83
2022-11-02T01:51:59.177Z,6.83
2022-11-02T01:54:07.197Z,9.93
2022-11-02T01:56:11.765Z,11.10
2022-11-02T01:58:15.288Z,7.60
2022-11-02T02:00:20.149Z,7.97
2022-11-02T02:02:25.302Z,11.67
2022-11-02T02:04:28.872Z,9.70
2022-11-02T02:06:32.377Z,7.03
2022-11-02T02:08:37.194Z,17.43
2022-11-02T02:10:42.199Z,16.73
2022-11-02T02:12:46.126Z,30.70
2022-11-02T02:14:49.617Z,30.90
2022-11-02T02:16:59.272Z,33.83
2022-11-02T02:19:04.970Z,34.00
2022-11-02T02:21:14.342Z,35.77
2022-11-02T02:23:39.957Z,34.20
2022-11-02T02:26:07.265Z,35.77
2022-11-02T02:28:19.650Z,25.10
2022-11-02T02:30:23.172Z,20.90
2022-11-02T02:32:30.353Z,31.90
2022-11-02T02:34:37.362Z,35.57
2022-11-02T02:38:50.945Z,22.60
2022-11-02T02:40:56.242Z,19.80
2022-11-02T02:43:03.548Z,21.70
2022-11-02T02:45:14.768Z,16.23
2022-11-02T02:47:19.636Z,12.60
2022-11-02T02:49:25.273Z,11.50
2022-11-02T02:51:30.201Z,8.60
2022-11-02T02:53:39.479Z,13.77
2022-11-02T02:55:45.190Z,17.23
2022-11-02T02:57:48.963Z,11.07
2022-11-02T02:59:52.475Z,11.53
2022-11-02T03:01:57.601Z,8.80
2022-11-02T03:04:01.817Z,9.93
2022-11-02T03:06:07.139Z,11.30
2022-11-02T03:08:13.057Z,10.20
2022-11-02T03:10:21.215Z,7.30
2022-11-02T03:12:30.000Z,10.10
2022-11-02T03:14:38.134Z,10.53
2022-11-02T03:16:49.621Z,7.53
2022-11-02T03:18:56.180Z,7.60
2022-11-02T03:21:03.570Z,9.13
2022-11-02T03:23:10.955Z,10.13
2022-11-02T03:25:18.053Z,7.90
2022-11-02T03:27:22.973Z,7.07
2022-11-02T03:29:28.142Z,11.80
2022-11-02T03:31:35.792Z,11.60
2022-11-02T03:33:41.026Z,7.83
2022-11-02T03:35:50.674Z,6.30
2022-11-02T03:37:56.985Z,8.17
2022-11-02T03:40:06.260Z,15.80
2022-11-02T03:42:11.945Z,7.50
2022-11-02T03:44:16.932Z,6.47
2022-11-02T03:46:21.064Z,9.60
2022-11-02T03:48:27.892Z,9.17
2022-11-02T03:50:31.186Z,9.53
2022-11-02T03:52:39.475Z,9.83
2022-11-02T03:54:46.556Z,8.50
2022-11-02T03:56:51.563Z,12.50
2022-11-02T03:58:55.117Z,11.90
2022-11-02T04:01:02.974Z,11.83
2022-11-02T04:03:08.026Z,7.13
2022-11-02T04:05:11.579Z,12.43
2022-11-02T04:07:15.055Z,7.50
2022-11-02T04:09:18.983Z,8.53
2022-11-02T04:11:39.775Z,8.70
2022-11-02T04:14:01.202Z,8.90
2022-11-02T04:16:04.830Z,8.90
2022-11-02T04:18:26.024Z,8.70
2022-11-02T04:20:29.459Z,8.37
2022-11-02T04:22:50.067Z,9.70
2022-11-02T04:25:12.389Z,8.80
2022-11-02T04:27:20.600Z,12.03
2022-11-02T04:29:24.738Z,9.63
2022-11-02T04:31:28.179Z,24.30
2022-11-02T04:33:33.685Z,17.90
2022-11-02T04:35:37.856Z,15.70
2022-11-02T04:37:59.246Z,16.70
2022-11-02T04:40:04.207Z,16.23
2022-11-02T04:42:07.974Z,17.90
2022-11-02T04:44:11.681Z,13.40
2022-11-02T04:46:15.187Z,12.83
2022-11-02T04:48:18.640Z,10.33
2022-11-02T04:50:22.085Z,11.90
2022-11-02T04:52:25.529Z,10.50
2022-11-02T04:54:28.964Z,10.27
2022-11-02T04:56:33.855Z,9.07
2022-11-02T04:58:37.289Z,10.67
2022-11-02T05:00:40.725Z,12.97
2022-11-02T05:02:44.324Z,10.93
2022-11-02T05:04:47.545Z,17.33
2022-11-02T05:06:50.711Z,11.33
2022-11-02T05:08:53.972Z,13.87
2022-11-02T05:10:57.702Z,8.57
2022-11-02T05:13:02.655Z,8.20
2022-11-02T05:15:06.596Z,7.33
2022-11-02T05:17:09.806Z,8.97
2022-11-02T05:19:12.971Z,8.13
2022-11-02T05:21:16.244Z,7.13
2022-11-02T05:23:19.450Z,7.97
2022-11-02T05:25:22.555Z,9.30
2022-11-02T05:27:26.005Z,11.33
2022-11-02T05:29:30.503Z,11.03
2022-11-02T05:31:33.791Z,9.10
2022-11-02T05:33:37.271Z,8.00
2022-11-02T05:35:40.722Z,13.53
2022-11-02T05:37:43.893Z,11.37
2022-11-02T05:39:49.498Z,8.73
2022-11-02T05:41:53.908Z,8.13
2022-11-02T05:43:57.262Z,8.87
2022-11-02T05:46:03.744Z,9.67
2022-11-02T05:48:08.033Z,9.60
2022-11-02T05:50:11.576Z,9.00
2022-11-02T05:52:15.439Z,8.63
2022-11-02T05:54:19.284Z,9.47
2022-11-02T05:56:25.183Z,7.17
2022-11-02T05:58:29.401Z,10.50
2022-11-02T06:00:32.788Z,11.07
2022-11-02T06:02:37.528Z,9.20
2022-11-02T06:04:40.853Z,10.57
2022-11-02T06:06:46.007Z,8.40
2022-11-02T06:08:49.431Z,8.27
2022-11-02T06:10:52.750Z,8.93
2022-11-02T06:12:57.591Z,7.97
2022-11-02T06:15:01.043Z,11.30
2022-11-02T06:17:04.453Z,9.37
2022-11-02T06:19:09.214Z,9.33
2022-11-02T06:21:12.701Z,9.83
2022-11-02T06:23:18.306Z,8.27
2022-11-02T06:25:21.512Z,9.37
2022-11-02T06:27:25.052Z,7.27
2022-11-02T06:29:28.186Z,8.07
2022-11-02T06:31:31.627Z,18.80
2022-11-02T06:33:35.105Z,8.60
2022-11-02T06:35:39.696Z,9.57
2022-11-02T06:37:43.317Z,7.47
2022-11-02T06:39:46.668Z,15.53
2022-11-02T06:41:50.106Z,13.60
2022-11-02T06:43:53.496Z,7.60
2022-11-02T06:45:58.113Z,8.13
2022-11-02T06:48:01.232Z,16.03
2022-11-02T06:50:05.383Z,8.80
2022-11-02T06:52:10.623Z,8.87
2022-11-02T06:54:13.747Z,8.17
2022-11-02T06:56:17.375Z,11.10
2022-11-02T06:58:20.580Z,10.73
2022-11-02T07:00:24.575Z,7.63
2022-11-02T07:02:28.087Z,7.00
2022-11-02T07:04:31.211Z,7.37
2022-11-02T07:06:34.576Z,5.90
2022-11-02T07:08:39.411Z,9.67
2022-11-02T07:10:42.818Z,12.87
2022-11-02T07:12:46.334Z,12.03
2022-11-02T07:14:49.712Z,8.13
2022-11-02T07:16:53.309Z,9.30
2022-11-02T07:18:56.758Z,7.00
2022-11-02T07:21:00.704Z,14.17
2022-11-02T07:23:05.658Z,4.80
2022-11-02T07:25:11.898Z,5.87
2022-11-02T07:27:15.641Z,7.37
2022-11-02T07:29:19.361Z,6.00
2022-11-02T07:31:22.860Z,5.00
2022-11-02T07:33:26.351Z,11.03
2022-11-02T07:35:29.872Z,5.20
2022-11-02T07:37:33.476Z,7.60
2022-11-02T07:39:37.129Z,8.10
2022-11-02T07:41:42.175Z,8.67
2022-11-02T07:43:45.747Z,7.60
2022-11-02T07:45:49.328Z,5.17
2022-11-02T07:47:53.001Z,8.17
2022-11-02T07:49:59.064Z,8.63
2022-11-02T07:52:02.545Z,5.93
2022-11-02T07:54:06.244Z,7.27
2022-11-02T07:56:10.027Z,13.60
2022-11-02T07:58:16.458Z,9.60
2022-11-02T08:00:20.363Z,5.00
2022-11-02T08:02:24.291Z,6.00
2022-11-02T08:04:27.875Z,6.20
2022-11-02T08:06:31.712Z,5.60
2022-11-02T08:08:35.311Z,5.87
2022-11-02T08:10:40.645Z,4.97
2022-11-02T08:12:44.396Z,9.30
2022-11-02T08:14:49.280Z,9.30
2022-11-02T08:16:53.746Z,7.23
2022-11-02T08:18:59.239Z,9.00
2022-11-02T08:21:02.818Z,6.53
2022-11-02T08:23:07.870Z,5.87
2022-11-02T08:25:11.557Z,4.60
2022-11-02T08:27:15.291Z,7.80
2022-11-02T08:29:18.754Z,7.20
2022-11-02T08:31:23.874Z,12.17
2022-11-02T08:33:27.523Z,6.40
2022-11-02T08:35:30.941Z,6.40
2022-11-02T08:37:34.481Z,6.47
2022-11-02T08:39:37.944Z,5.37
2022-11-02T08:41:41.397Z,6.53
2022-11-02T08:43:44.864Z,5.97
2022-11-02T08:46:17.749Z,7.53
2022-11-02T08:48:13.386Z,10.07
2022-11-02T08:50:16.980Z,7.03
2022-11-02T08:52:20.456Z,7.63
2022-11-02T08:54:23.939Z,7.77
2022-11-02T08:56:27.555Z,5.83
2022-11-02T08:58:31.034Z,8.00
2022-11-02T09:00:35.759Z,6.67
2022-11-02T09:02:39.464Z,8.20
2022-11-02T09:04:44.334Z,4.23
2022-11-02T09:06:47.917Z,7.83
2022-11-02T09:08:53.796Z,10.90
2022-11-02T09:11:00.910Z,6.10
2022-11-02T09:13:06.066Z,5.60
2022-11-02T09:15:10.563Z,6.30
2022-11-02T09:17:14.284Z,8.10
2022-11-02T09:19:18.097Z,5.33
2022-11-02T09:21:22.945Z,6.30
2022-11-02T09:23:26.591Z,9.53
2022-11-02T09:25:30.086Z,7.70
2022-11-02T09:27:33.534Z,4.10
2022-11-02T09:29:37.127Z,7.43
2022-11-02T09:31:40.630Z,5.63
2022-11-02T09:33:44.197Z,6.30
2022-11-02T09:35:49.403Z,9.13
2022-11-02T09:37:54.313Z,10.43
2022-11-02T09:39:58.256Z,4.33
2022-11-02T09:42:05.546Z,6.43
2022-11-02T09:44:13.177Z,3.97
2022-11-02T09:46:19.394Z,6.83
2022-11-02T09:48:28.672Z,5.93
2022-11-02T09:50:36.755Z,8.60
2022-11-02T09:52:42.017Z,6.60
2022-11-02T09:54:50.009Z,6.30
2022-11-02T09:56:54.577Z,4.90
2022-11-02T09:59:01.554Z,5.73
2022-11-02T10:01:08.053Z,5.57
2022-11-02T10:03:17.793Z,4.50
2022-11-02T10:05:26.101Z,6.63
2022-11-02T10:07:39.074Z,5.77
2022-11-02T10:09:47.836Z,6.63
2022-11-02T10:11:56.200Z,7.53
2022-11-02T10:14:02.692Z,6.23
2022-11-02T10:16:09.960Z,6.40
2022-11-02T10:18:16.210Z,6.47
2022-11-02T10:20:24.831Z,4.73
2022-11-02T10:22:30.595Z,6.23
2022-11-02T10:24:36.446Z,7.00
2022-11-02T10:26:43.434Z,6.23
2022-11-02T10:28:50.373Z,5.90
2022-11-02T10:30:54.555Z,8.60
2022-11-02T10:32:58.602Z,5.27
2022-11-02T10:35:17.911Z,4.10
2022-11-02T10:37:33.591Z,5.73
2022-11-02T10:39:42.742Z,6.87
2022-11-02T10:41:56.676Z,5.37
2022-11-02T10:44:09.999Z,10.63
2022-11-02T10:46:34.730Z,10.03
2022-11-02T10:48:44.484Z,8.53
2022-11-02T10:51:57.515Z,6.77
2022-11-02T10:53:41.250Z,8.13
2022-11-02T10:55:51.735Z,5.47
2022-11-02T10:57:57.043Z,8.37
2022-11-02T11:00:18.903Z,9.30
2022-11-02T11:02:23.915Z,10.57
2022-11-02T11:04:28.547Z,15.07
2022-11-02T11:06:33.655Z,5.93
2022-11-02T11:08:39.364Z,9.83
2022-11-02T11:10:44.368Z,6.03
2022-11-02T11:12:48.253Z,4.53
2022-11-02T11:19:48.970Z,12.63
2022-11-02T11:21:52.764Z,4.93
2022-11-02T11:24:13.478Z,4.33
2022-11-02T11:26:28.486Z,7.33
2022-11-02T11:28:33.551Z,7.70
2022-11-02T11:33:03.132Z,5.20
2022-11-02T11:35:09.672Z,6.80
2022-11-02T11:37:16.783Z,5.33
2022-11-02T11:39:26.004Z,7.13
2022-11-02T11:41:30.831Z,5.97
2022-11-02T11:43:39.456Z,12.20
2022-11-02T11:45:55.167Z,12.47
2022-11-02T11:48:01.681Z,6.50
2022-11-02T11:50:11.779Z,5.80
2022-11-02T11:52:31.664Z,6.67
2022-11-02T11:54:36.160Z,8.50
2022-11-02T11:56:39.690Z,10.43
2022-11-02T11:58:53.224Z,5.43
2022-11-02T12:01:11.096Z,7.63
2022-11-02T12:03:16.454Z,6.20
2022-11-02T12:05:20.970Z,7.07
2022-11-02T12:07:55.871Z,6.63
2022-11-02T12:10:05.000Z,7.43
2022-11-02T12:12:13.077Z,6.60
2022-11-02T12:14:24.026Z,8.17
2022-11-02T12:16:31.633Z,10.80
2022-11-02T12:18:46.066Z,6.50
2022-11-02T12:20:55.867Z,5.60
2022-11-02T12:23:03.676Z,6.80
2022-11-02T12:25:25.860Z,9.30
2022-11-02T12:27:33.555Z,5.73
2022-11-02T12:29:49.620Z,8.70
2022-11-02T12:32:00.915Z,6.23
2022-11-02T12:34:21.144Z,6.50
2022-11-02T12:36:38.785Z,5.80
2022-11-02T12:38:55.155Z,5.60
2022-11-02T12:41:04.054Z,6.77
2022-11-02T12:43:16.952Z,6.20
2022-11-02T12:45:24.345Z,11.03
2022-11-02T12:47:36.240Z,6.30
2022-11-02T12:49:47.932Z,8.20
2022-11-02T12:51:55.328Z,10.27
2022-11-02T12:54:00.394Z,4.50
2022-11-02T12:56:07.204Z,7.53
2022-11-02T12:58:16.335Z,11.23
2022-11-02T13:00:21.353Z,6.63
2022-11-02T13:02:28.131Z,5.73
2022-11-02T13:04:38.588Z,7.60
2022-11-02T13:06:44.099Z,11.07
2022-11-02T13:08:48.874Z,9.20
2022-11-02T13:10:54.205Z,8.20
2022-11-02T13:13:00.160Z,11.43
2022-11-02T13:15:09.338Z,6.37
2022-11-02T13:17:16.984Z,9.30
2022-11-02T13:19:22.230Z,6.70
2022-11-02T13:21:31.127Z,9.50
2022-11-02T13:23:39.303Z,6.20
2022-11-02T13:25:44.363Z,6.20
2022-11-02T13:27:50.644Z,5.30
2022-11-02T13:29:57.998Z,4.40
2022-11-02T13:32:06.190Z,3.87
2022-11-02T13:34:12.958Z,11.97
2022-11-02T13:36:16.969Z,9.23
2022-11-02T13:38:26.041Z,10.07
2022-11-02T13:40:30.919Z,6.53
2022-11-02T13:42:55.322Z,8.70
2022-11-02T13:45:11.335Z,11.00
2022-11-02T13:47:33.340Z,10.63
2022-11-02T13:49:38.601Z,8.73
2022-11-02T13:51:45.656Z,9.77
2022-11-02T13:53:54.905Z,6.17
2022-11-02T13:56:01.787Z,9.50
2022-11-02T13:58:06.777Z,6.63
2022-11-02T14:00:25.539Z,4.50
2022-11-02T14:02:33.579Z,5.60
2022-11-02T14:04:40.154Z,7.10
2022-11-02T14:06:50.565Z,5.90
2022-11-02T14:08:56.532Z,7.43
2022-11-02T14:11:04.904Z,9.40
2022-11-02T14:13:13.927Z,7.83
2022-11-02T14:15:50.430Z,8.10
2022-11-02T14:18:09.722Z,15.80
2022-11-02T14:20:28.208Z,8.03
2022-11-02T14:22:33.050Z,6.00
2022-11-02T14:24:57.077Z,7.30
2022-11-02T14:27:01.058Z,5.93
2022-11-02T14:29:07.501Z,10.33
2022-11-02T14:31:32.122Z,11.23
2022-11-02T14:33:51.356Z,6.40
2022-11-02T14:35:58.868Z,7.57
2022-11-02T14:38:14.116Z,8.43
2022-11-02T14:40:28.588Z,6.30
2022-11-02T14:42:39.552Z,9.57
2022-11-02T14:44:48.741Z,4.00
2022-11-02T14:46:57.176Z,9.93
2022-11-02T14:49:04.287Z,12.83
2022-11-02T14:51:09.458Z,16.33
2022-11-02T14:53:22.109Z,8.40
2022-11-02T14:55:27.309Z,5.57
2022-11-02T14:57:31.836Z,13.20
2022-11-02T14:59:37.473Z,7.20
2022-11-02T15:01:51.618Z,6.50
2022-11-02T15:03:55.564Z,7.93
2022-11-02T15:06:06.106Z,8.53
2022-11-02T15:08:10.424Z,18.00
2022-11-02T15:10:39.111Z,8.27
2022-11-02T15:12:43.602Z,6.23
2022-11-02T15:14:56.450Z,7.03
2022-11-02T15:17:00.259Z,9.20
2022-11-02T15:19:18.506Z,6.60
2022-11-02T15:21:29.871Z,10.50
2022-11-02T15:23:37.059Z,8.23
2022-11-02T15:25:42.659Z,5.93
2022-11-02T15:27:47.179Z,6.00
2022-11-02T15:29:52.620Z,8.70
2022-11-02T15:31:58.470Z,14.77
2022-11-02T15:34:05.085Z,15.47
2022-11-02T15:36:10.575Z,26.53
2022-11-02T15:38:18.005Z,23.33
2022-11-02T15:40:23.984Z,33.90
2022-11-02T15:42:37.984Z,22.00
2022-11-02T15:45:26.823Z,16.20
2022-11-02T15:47:41.838Z,13.13
2022-11-02T15:50:08.895Z,21.30
2022-11-02T15:52:24.489Z,17.20
2022-11-02T15:54:46.572Z,16.03
2022-11-02T15:56:55.697Z,18.60
2022-11-02T15:59:37.177Z,10.17
2022-11-02T16:01:41.629Z,13.03
2022-11-02T16:03:48.028Z,15.30
2022-11-02T16:05:51.408Z,19.43
2022-11-02T16:08:10.597Z,11.60
2022-11-02T16:10:23.654Z,8.27
2022-11-02T16:12:31.789Z,10.10
2022-11-02T16:14:35.508Z,11.13
2022-11-02T16:16:48.301Z,10.17
2022-11-02T16:18:57.018Z,7.43
2022-11-02T16:21:03.935Z,8.33
2022-11-02T16:23:09.709Z,6.00
2022-11-02T16:25:19.535Z,8.77
2022-11-02T16:27:24.163Z,8.80
2022-11-02T16:29:32.642Z,5.20
2022-11-02T16:31:36.134Z,8.23
2022-11-02T16:33:42.249Z,9.60
2022-11-02T16:35:46.351Z,15.03
2022-11-02T16:37:51.791Z,17.47
2022-11-02T16:39:56.080Z,11.77
2022-11-02T16:42:02.657Z,7.33
2022-11-02T16:44:11.545Z,6.43
2022-11-02T16:46:18.693Z,5.20
2022-11-02T16:48:26.219Z,6.33
2022-11-02T16:50:31.391Z,10.33
2022-11-02T16:52:36.908Z,14.00
2022-11-02T16:54:41.764Z,6.60
2022-11-02T16:56:49.632Z,13.93
2022-11-02T16:58:59.884Z,13.60
2022-11-02T17:01:06.349Z,20.90
2022-11-02T17:03:11.529Z,17.10
2022-11-02T17:05:19.071Z,13.63
2022-11-02T17:07:26.699Z,22.07
2022-11-02T17:09:32.569Z,20.43
2022-11-02T17:11:35.852Z,20.83
2022-11-02T17:13:45.931Z,21.23
2022-11-02T17:15:53.338Z,16.33
2022-11-02T17:18:26.428Z,15.07
2022-11-02T17:20:29.592Z,14.97
2022-11-02T17:22:37.748Z,10.60
2022-11-02T17:24:40.962Z,9.10
2022-11-02T17:26:44.140Z,20.67
2022-11-02T17:28:48.049Z,9.27
2022-11-02T17:30:53.539Z,15.00
2022-11-02T17:32:57.063Z,10.20
2022-11-02T17:35:00.596Z,11.27
2022-11-02T17:37:04.086Z,10.07
2022-11-02T17:39:07.258Z,10.67
2022-11-02T17:41:28.020Z,18.97
2022-11-02T17:43:31.245Z,21.67
2022-11-02T17:45:38.324Z,10.03
2022-11-02T17:47:42.866Z,8.27
2022-11-02T17:49:46.004Z,11.70
2022-11-02T17:51:49.492Z,16.13
2022-11-02T17:53:52.908Z,9.87
2022-11-02T17:55:56.377Z,11.57
2022-11-02T17:58:00.390Z,12.73
2022-11-02T18:00:03.953Z,11.10
2022-11-02T18:02:12.621Z,18.10
2022-11-02T18:04:17.513Z,18.60
2022-11-02T18:06:20.964Z,40.17
2022-11-02T18:08:24.456Z,17.87
2022-11-02T18:10:31.520Z,31.77
2022-11-02T18:12:34.707Z,32.40
2022-11-02T18:14:38.218Z,36.00
2022-11-02T18:16:41.407Z,29.80
2022-11-02T18:18:44.539Z,22.70
2022-11-02T18:20:49.254Z,28.90
2022-11-02T18:22:52.753Z,32.43
2022-11-02T18:24:56.018Z,21.90
2022-11-02T18:26:59.504Z,30.57
2022-11-02T18:29:04.499Z,29.23
2022-11-02T18:31:08.321Z,36.83
2022-11-02T18:33:13.690Z,29.00
2022-11-02T18:35:19.599Z,26.33
2022-11-02T18:37:28.681Z,26.93
2022-11-02T18:39:32.451Z,24.77
2022-11-02T18:41:37.117Z,35.13
2022-11-02T18:43:40.540Z,32.70
2022-11-02T18:45:44.262Z,23.87
2022-11-02T18:47:48.087Z,37.27
2022-11-02T18:49:51.696Z,16.23
2022-11-02T18:51:55.202Z,13.83
2022-11-02T18:54:01.835Z,15.20
2022-11-02T18:56:05.417Z,14.67
2022-11-02T18:58:09.046Z,14.73
2022-11-02T19:00:12.994Z,9.83
2022-11-02T19:02:17.013Z,19.00
2022-11-02T19:04:20.468Z,18.77
2022-11-02T19:06:43.899Z,11.83
2022-11-02T19:09:05.358Z,14.20
2022-11-02T19:11:10.100Z,9.90
2022-11-02T19:13:13.556Z,11.00
2022-11-02T19:15:16.847Z,9.63
2022-11-02T19:17:20.391Z,10.17
2022-11-02T19:19:23.914Z,12.47
2022-11-02T19:21:27.233Z,18.80
2022-11-02T19:23:30.349Z,21.37
2022-11-02T19:25:36.620Z,14.30
2022-11-02T19:27:41.571Z,8.70
2022-11-02T19:29:44.803Z,6.90
2022-11-02T19:31:48.601Z,7.10
2022-11-02T19:33:52.036Z,6.77
2022-11-02T19:35:56.442Z,6.57
2022-11-02T19:37:59.730Z,10.63
2022-11-02T19:40:03.446Z,13.00
2022-11-02T19:42:07.515Z,23.63
2022-11-02T19:44:12.443Z,9.87
2022-11-02T19:46:17.465Z,10.60
2022-11-02T19:48:20.883Z,5.03
2022-11-02T19:50:24.415Z,4.70
2022-11-02T19:52:28.053Z,6.93
2022-11-02T19:54:31.275Z,4.67
2022-11-02T19:56:36.679Z,3.00
2022-11-02T19:58:41.125Z,3.83
2022-11-02T20:00:45.777Z,3.10
2022-11-02T20:02:51.445Z,3.97
2022-11-02T20:04:55.438Z,2.13
2022-11-02T20:06:59.552Z,3.47
2022-11-02T20:09:05.352Z,2.50
2022-11-02T20:11:10.155Z,3.03
2022-11-02T20:13:13.389Z,2.90
2022-11-02T20:15:16.837Z,2.00
2022-11-02T20:17:51.879Z,6.60
2022-11-02T20:19:44.837Z,5.90
2022-11-02T20:21:48.617Z,2.00
2022-11-02T20:23:52.572Z,2.20
2022-11-02T20:25:59.951Z,3.40
2022-11-02T20:28:03.879Z,3.23
2022-11-02T20:30:08.169Z,3.00
2022-11-02T20:32:12.568Z,2.87
2022-11-02T20:34:17.295Z,1.70
2022-11-02T20:36:21.068Z,1.80
2022-11-02T20:38:24.274Z,3.43
2022-11-02T20:40:28.944Z,4.27
2022-11-02T20:42:33.127Z,2.53
2022-11-02T20:44:36.304Z,2.30
2022-11-02T20:46:41.886Z,5.40
2022-11-02T20:48:46.772Z,4.90
2022-11-02T20:50:51.393Z,5.03
2022-11-02T20:52:55.427Z,6.40
2022-11-02T20:54:59.312Z,3.67
2022-11-02T20:57:02.786Z,4.07
2022-11-02T20:59:06.180Z,2.70
2022-11-02T21:01:10.531Z,3.07
2022-11-02T21:03:13.848Z,2.50
2022-11-02T21:05:17.185Z,2.10
2022-11-02T21:07:22.104Z,4.23
2022-11-02T21:09:25.623Z,3.70
2022-11-02T21:11:46.562Z,4.77
2022-11-02T21:13:52.680Z,3.87
2022-11-02T21:15:56.189Z,2.70
2022-11-02T21:18:00.400Z,2.70
2022-11-02T21:20:28.365Z,4.27
2022-11-02T21:22:28.275Z,3.43
2022-11-02T21:24:31.738Z,3.40
2022-11-02T21:26:34.880Z,3.00
2022-11-02T21:28:42.114Z,4.50
2022-11-02T21:30:45.251Z,3.33
2022-11-02T21:32:51.789Z,4.70
2022-11-02T21:34:55.568Z,8.77
2022-11-02T21:36:58.849Z,5.83
2022-11-02T21:39:03.614Z,19.60
2022-11-02T21:41:08.633Z,5.87
2022-11-02T21:43:12.003Z,7.27
2022-11-02T21:45:17.952Z,7.17
2022-11-02T21:47:21.554Z,6.53
2022-11-02T21:49:24.728Z,7.63
2022-11-02T21:51:28.942Z,5.93
2022-11-02T21:53:32.846Z,10.00
2022-11-02T21:55:37.388Z,5.37
2022-11-02T21:57:40.517Z,5.83
2022-11-02T21:59:43.836Z,3.83
2022-11-02T22:01:47.925Z,7.53
2022-11-02T22:03:52.470Z,21.60
2022-11-02T22:05:59.520Z,31.13
2022-11-02T22:08:20.451Z,28.77
2022-11-02T22:10:23.571Z,32.03
2022-11-02T22:12:45.812Z,30.87
2022-11-02T22:14:49.055Z,25.70
2022-11-02T22:16:52.280Z,26.17
2022-11-02T22:18:57.169Z,24.43
2022-11-02T22:21:00.353Z,20.60
2022-11-02T22:23:03.692Z,15.93
2022-11-02T22:25:10.649Z,14.43
2022-11-02T22:27:13.792Z,10.83
2022-11-02T22:29:18.852Z,12.43
2022-11-02T22:31:23.330Z,12.93
2022-11-02T22:33:26.890Z,15.40
2022-11-02T22:35:30.037Z,13.00
2022-11-02T22:37:50.678Z,8.83
2022-11-02T22:39:54.290Z,9.80
2022-11-02T22:41:57.503Z,9.53
2022-11-02T22:44:03.378Z,8.77
2022-11-02T22:46:09.167Z,11.00
2022-11-02T22:48:12.656Z,9.43
2022-11-02T22:50:16.011Z,11.30
2022-11-02T22:52:19.164Z,8.10
2022-11-02T22:54:22.635Z,6.20
2022-11-02T22:56:26.030Z,7.33
2022-11-02T22:58:30.400Z,4.50
2022-11-02T23:00:33.600Z,8.47
2022-11-02T23:02:38.239Z,5.73
2022-11-02T23:04:41.343Z,4.90
2022-11-02T23:06:44.506Z,5.23
2022-11-02T23:08:48.222Z,6.60
2022-11-02T23:11:12.872Z,3.37
2022-11-02T23:13:16.367Z,3.70
2022-11-02T23:15:19.660Z,6.00
2022-11-02T23:17:22.784Z,5.20
2022-11-02T23:19:28.697Z,4.80
2022-11-02T23:21:32.633Z,8.80
2022-11-02T23:23:53.405Z,5.03
2022-11-02T23:25:57.447Z,6.00
2022-11-02T23:28:18.679Z,3.80
2022-11-02T23:30:39.229Z,4.20
2022-11-02T23:32:42.505Z,12.90
2022-11-02T23:35:01.255Z,18.13
2022-11-02T23:37:06.924Z,16.10
2022-11-02T23:39:27.600Z,15.10
2022-11-02T23:41:32.165Z,18.33
2022-11-02T23:43:35.506Z,20.30
2022-11-02T23:45:38.910Z,16.63
2022-11-02T23:48:00.579Z,19.73
2022-11-02T23:50:05.973Z,19.03
2022-11-02T23:52:32.395Z,14.77
2022-11-02T23:54:53.352Z,18.07
2022-11-02T23:56:56.523Z,13.20
2022-11-02T23:59:07.346Z,13.10
